createdAt,value
2023-04-19T00:00:08.965Z,28.10
2023-04-19T00:05:12.963Z,27.80
2023-04-19T00:10:14.480Z,29.60
2023-04-19T00:15:15.544Z,26.10
2023-04-19T00:20:16.697Z,29.20
2023-04-19T00:25:17.717Z,24.80
2023-04-19T00:30:18.806Z,23.40
2023-04-19T00:35:19.870Z,25.60
2023-04-19T00:40:21.127Z,18.20
2023-04-19T00:45:22.127Z,21.60
2023-04-19T00:50:23.500Z,21.30
2023-04-19T00:55:24.610Z,22.70
2023-04-19T01:00:25.780Z,22.60
2023-04-19T01:05:26.766Z,21.60
2023-04-19T01:10:27.817Z,23.80
2023-04-19T01:15:29.567Z,20.90
2023-04-19T01:20:30.644Z,20.50
2023-04-19T01:25:31.637Z,21.50
2023-04-19T01:30:34.935Z,21.30
2023-04-19T01:35:36.209Z,22.90
2023-04-19T01:40:37.285Z,20.20
2023-04-19T01:45:38.885Z,12.00
2023-04-19T01:50:39.890Z,18.60
2023-04-19T01:55:40.911Z,19.70
2023-04-19T02:00:42.025Z,21.40
2023-04-19T02:05:43.035Z,20.80
2023-04-19T02:10:48.259Z,20.80
2023-04-19T02:15:49.785Z,18.50
2023-04-19T02:20:51.208Z,26.10
2023-04-19T02:25:52.826Z,21.10
2023-04-19T02:30:53.839Z,20.20
2023-04-19T02:35:54.813Z,21.90
2023-04-19T02:40:55.799Z,19.60
2023-04-19T02:45:56.938Z,20.80
2023-04-19T02:50:58.343Z,19.80
2023-04-19T02:55:59.579Z,13.10
2023-04-19T03:01:00.852Z,16.70
2023-04-19T03:06:02.676Z,23.30
2023-04-19T03:11:06.185Z,21.80
2023-04-19T03:16:08.302Z,19.50
2023-04-19T03:21:10.649Z,20.60
2023-04-19T03:26:27.001Z,21.40
2023-04-19T03:31:30.578Z,19.40
2023-04-19T03:36:32.786Z,20.10
2023-04-19T03:41:34.050Z,20.40
2023-04-19T03:46:45.542Z,22.00
2023-04-19T03:51:48.154Z,23.10
2023-04-19T03:56:49.401Z,24.40
2023-04-19T04:01:50.720Z,16.00
2023-04-19T04:06:52.561Z,21.10
2023-04-19T04:11:53.720Z,23.20
2023-04-19T04:16:55.255Z,19.70
2023-04-19T04:21:56.567Z,24.30
2023-04-19T04:27:00.171Z,19.40
2023-04-19T04:32:10.389Z,17.70
2023-04-19T04:37:13.846Z,21.30
2023-04-19T04:42:15.368Z,15.00
2023-04-19T04:47:16.911Z,23.10
2023-04-19T04:52:23.530Z,17.50
2023-04-19T04:57:40.516Z,19.70
2023-04-19T05:02:43.545Z,17.00
2023-04-19T05:07:45.206Z,12.50
2023-04-19T05:12:46.577Z,13.90
2023-04-19T05:17:48.183Z,17.70
2023-04-19T05:22:49.702Z,16.30
2023-04-19T05:27:51.262Z,13.30
2023-04-19T05:32:52.692Z,17.50
2023-04-19T05:37:53.970Z,21.20
2023-04-19T05:42:55.000Z,19.20
2023-04-19T05:47:56.326Z,15.40
2023-04-19T05:53:23.608Z,18.70
2023-04-19T05:58:27.394Z,15.60
2023-04-19T06:03:31.223Z,17.30
2023-04-19T06:08:33.800Z,17.30
2023-04-19T06:13:35.372Z,13.80
2023-04-19T06:18:36.646Z,16.10
2023-04-19T06:23:37.805Z,18.10
2023-04-19T06:28:38.818Z,22.30
2023-04-19T06:33:40.033Z,12.90
2023-04-19T06:38:41.156Z,12.60
2023-04-19T06:43:42.213Z,14.80
2023-04-19T06:48:43.195Z,12.40
2023-04-19T06:53:44.167Z,11.80
2023-04-19T06:58:45.230Z,10.10
2023-04-19T07:03:46.468Z,11.10
2023-04-19T07:08:50.345Z,12.70
2023-04-19T07:13:51.846Z,11.80
2023-04-19T07:18:53.353Z,21.70
2023-04-19T07:23:54.309Z,15.60
2023-04-19T07:28:56.394Z,8.90
2023-04-19T07:33:57.396Z,10.00
2023-04-19T07:38:58.425Z,12.60
2023-04-19T07:43:59.542Z,7.40
2023-04-19T07:49:00.542Z,16.90
2023-04-19T07:54:01.514Z,12.30
2023-04-19T07:59:08.417Z,12.60
2023-04-19T08:04:10.542Z,15.30
2023-04-19T08:09:11.855Z,6.80
2023-04-19T08:14:30.624Z,15.10
2023-04-19T08:19:34.035Z,9.20
2023-04-19T08:24:35.080Z,14.40
2023-04-19T08:29:38.123Z,12.80
2023-04-19T08:34:39.680Z,16.20
2023-04-19T08:39:41.071Z,12.80
2023-04-19T08:45:02.256Z,22.40
2023-04-19T08:50:17.476Z,20.50
2023-04-19T08:55:27.087Z,25.90
2023-04-19T09:00:28.318Z,28.80
2023-04-19T09:05:30.563Z,23.40
2023-04-19T09:10:31.841Z,29.20
2023-04-19T09:15:38.682Z,19.50
2023-04-19T09:20:42.058Z,19.20
2023-04-19T09:26:19.287Z,17.50
2023-04-19T09:31:43.463Z,21.10
2023-04-19T09:36:52.446Z,25.60
2023-04-19T09:41:58.685Z,23.60
2023-04-19T09:46:59.992Z,13.70
2023-04-19T09:52:03.057Z,25.10
2023-04-19T09:57:04.844Z,19.00
2023-04-19T10:02:07.040Z,26.80
2023-04-19T10:07:29.090Z,15.80
2023-04-19T10:12:52.281Z,25.10
2023-04-19T10:17:53.091Z,19.60
2023-04-19T10:22:54.675Z,28.20
2023-04-19T10:27:56.886Z,22.20
2023-04-19T10:33:02.450Z,25.90
2023-04-19T10:38:15.684Z,16.80
2023-04-19T10:43:18.706Z,30.50
2023-04-19T10:48:35.011Z,26.00
2023-04-19T10:53:57.277Z,23.90
2023-04-19T10:59:01.948Z,20.30
2023-04-19T11:04:03.745Z,16.80
2023-04-19T11:09:06.492Z,23.40
2023-04-19T11:14:08.868Z,19.30
2023-04-19T11:19:09.934Z,15.10
2023-04-19T11:24:12.323Z,23.80
2023-04-19T11:29:14.029Z,16.80
2023-04-19T11:34:15.477Z,20.00
2023-04-19T11:39:17.168Z,12.90
2023-04-19T11:44:19.688Z,17.00
2023-04-19T11:49:28.776Z,21.40
2023-04-19T11:54:29.872Z,12.10
2023-04-19T11:59:32.808Z,9.40
2023-04-19T12:04:34.821Z,12.40
2023-04-19T12:09:36.429Z,15.30
2023-04-19T12:14:38.358Z,8.10
2023-04-19T12:19:45.496Z,13.10
2023-04-19T12:24:46.568Z,12.50
2023-04-19T12:29:47.516Z,10.60
2023-04-19T12:34:48.486Z,9.20
2023-04-19T12:39:49.462Z,11.00
2023-04-19T12:44:50.442Z,11.00
2023-04-19T12:49:51.390Z,10.20
2023-04-19T12:54:52.396Z,12.70
2023-04-19T12:59:53.449Z,9.50
2023-04-19T13:04:54.961Z,8.50
2023-04-19T13:09:56.807Z,11.00
2023-04-19T13:14:58.293Z,13.40
2023-04-19T13:19:59.309Z,12.00
2023-04-19T13:25:00.711Z,14.00
2023-04-19T13:30:02.009Z,11.10
2023-04-19T13:35:05.103Z,11.00
2023-04-19T13:40:17.863Z,11.70
2023-04-19T13:45:20.303Z,10.60
2023-04-19T13:50:21.311Z,9.50
2023-04-19T13:55:22.319Z,11.60
2023-04-19T14:00:23.455Z,15.30
2023-04-19T14:05:24.583Z,12.70
2023-04-19T14:10:25.636Z,17.00
2023-04-19T14:15:26.670Z,10.80
2023-04-19T14:20:27.750Z,18.90
2023-04-19T14:25:28.748Z,14.70
2023-04-19T14:30:31.135Z,17.80
2023-04-19T14:35:32.447Z,15.10
2023-04-19T14:40:33.502Z,16.00
2023-04-19T14:45:34.577Z,16.10
2023-04-19T14:50:35.643Z,21.70
2023-04-19T14:55:37.389Z,17.40
2023-04-19T15:00:38.388Z,21.40
2023-04-19T15:05:39.591Z,22.80
2023-04-19T15:10:40.770Z,17.60
2023-04-19T15:15:41.732Z,25.70
2023-04-19T15:20:42.674Z,17.90
2023-04-19T15:25:44.205Z,13.90
2023-04-19T15:30:56.080Z,22.30
2023-04-19T15:35:58.983Z,16.40
2023-04-19T15:41:03.089Z,20.60
2023-04-19T15:51:06.496Z,20.90
2023-04-19T15:56:08.068Z,31.70
2023-04-19T16:01:12.943Z,35.50
2023-04-19T16:06:14.255Z,19.40
2023-04-19T16:11:17.180Z,32.20
2023-04-19T16:16:20.264Z,28.10
2023-04-19T16:21:22.413Z,29.80
2023-04-19T16:26:25.079Z,32.70
2023-04-19T16:31:26.542Z,27.40
2023-04-19T16:36:27.742Z,35.40
2023-04-19T16:41:29.291Z,27.60
2023-04-19T16:46:30.704Z,29.60
2023-04-19T16:51:32.122Z,25.60
2023-04-19T16:56:33.177Z,26.60
2023-04-19T17:01:34.148Z,24.20
2023-04-19T17:06:35.210Z,32.00
2023-04-19T17:11:36.185Z,34.70
2023-04-19T17:16:37.207Z,37.60
2023-04-19T17:21:38.222Z,41.20
2023-04-19T17:26:39.429Z,44.50
2023-04-19T17:31:40.486Z,38.90
2023-04-19T17:36:41.773Z,34.20
2023-04-19T17:41:44.010Z,29.80
2023-04-19T17:46:45.234Z,47.20
2023-04-19T17:51:46.980Z,48.10
2023-04-19T17:56:49.675Z,46.60
2023-04-19T18:01:50.679Z,78.60
2023-04-19T18:06:51.778Z,146.70
2023-04-19T18:11:52.959Z,42.60
2023-04-19T18:16:54.116Z,45.20
2023-04-19T18:21:55.378Z,33.70
2023-04-19T18:26:57.570Z,33.40
2023-04-19T18:31:58.579Z,40.80
2023-04-19T18:37:02.271Z,44.60
2023-04-19T18:42:03.271Z,30.20
2023-04-19T18:47:05.951Z,41.20
2023-04-19T18:52:06.920Z,44.40
2023-04-19T18:57:22.460Z,50.70
2023-04-19T19:02:25.635Z,31.10
2023-04-19T19:12:32.076Z,42.10
2023-04-19T19:17:33.122Z,60.40
2023-04-19T19:22:34.402Z,52.90
2023-04-19T19:27:36.911Z,54.60
2023-04-19T19:32:39.520Z,32.90
2023-04-19T19:37:40.648Z,47.80
2023-04-19T19:42:41.746Z,51.00
2023-04-19T19:47:45.326Z,48.70
2023-04-19T19:52:47.096Z,49.50
2023-04-19T19:58:23.790Z,72.30
2023-04-19T20:03:10.208Z,60.80
2023-04-19T20:08:13.179Z,56.80
2023-04-19T20:13:14.444Z,70.80
2023-04-19T20:18:17.122Z,39.90
2023-04-19T20:23:19.262Z,73.50
2023-04-19T20:28:20.387Z,78.00
2023-04-19T20:33:21.853Z,84.10
2023-04-19T20:38:23.720Z,60.10
2023-04-19T20:43:24.795Z,84.70
2023-04-19T20:48:25.775Z,69.60
2023-04-19T20:53:26.802Z,57.00
2023-04-19T20:58:27.825Z,69.40
2023-04-19T21:03:29.051Z,66.70
2023-04-19T21:08:30.910Z,72.30
2023-04-19T21:13:35.654Z,68.70
2023-04-19T21:18:36.952Z,64.90
2023-04-19T21:23:38.376Z,61.80
2023-04-19T21:28:39.667Z,36.90
2023-04-19T21:33:43.390Z,45.70
2023-04-19T21:38:44.435Z,61.60
2023-04-19T21:43:46.261Z,55.80
2023-04-19T21:48:47.287Z,59.60
2023-04-19T21:53:50.106Z,62.00
2023-04-19T21:58:51.062Z,54.50
2023-04-19T22:03:55.994Z,40.00
2023-04-19T22:09:02.373Z,66.70
2023-04-19T22:14:03.877Z,68.00
2023-04-19T22:19:04.883Z,77.10
2023-04-19T22:24:06.728Z,38.90
2023-04-19T22:29:07.803Z,60.70
2023-04-19T22:34:08.801Z,59.60
2023-04-19T22:39:09.863Z,66.20
2023-04-19T22:44:11.165Z,69.30
2023-04-19T22:49:12.638Z,54.80
2023-04-19T22:54:16.819Z,54.00
2023-04-19T22:59:18.216Z,46.50
2023-04-19T23:04:19.766Z,51.80
2023-04-19T23:09:23.904Z,57.90
2023-04-19T23:14:30.692Z,57.40
2023-04-19T23:19:31.685Z,34.10
2023-04-19T23:24:35.423Z,47.50
2023-04-19T23:29:36.451Z,50.40
2023-04-19T23:34:37.472Z,49.80
2023-04-19T23:39:39.150Z,48.60
2023-04-19T23:44:43.818Z,45.20
2023-04-19T23:49:51.734Z,51.10
2023-04-19T23:54:52.721Z,45.40
2023-04-19T23:59:53.716Z,42.90
